Latest Coastal Weather Observations for Cape Borda

IDS60701

Issued at 6:31 am CST Monday 6 July 2015 (issued every 10 minutes, with the page automatically refreshed every 10 minutes)

About coastal observations | Map of coastal stations | Coastal observations for SA | Marine services | Other Formats
Station Details ID: 022823 Name: CAPE BORDA Lat: -35.75 Lon: 136.60 Height: 158.0 m
Data from the previous 72 hours. | See also: Recent months at Cape Borda
Date/Time
CST
Temp

°C
Wind Pressure Rain
since 9am
mm
Weather Cloud Vis
km
Sea
Height
m
Swell
Dir
 
Speed
knots
Gust
knots
hPa Trend Height
m
Period
s
Dir
06/06:30am 11.3 W 13 22 1013.9 - 8.2 - - - - - - -
06/06:00am 11.9 W 15 22 1014.0 - 8.0 - - - - - - -
06/05:30am 12.1 WSW 15 23 1013.6 - 8.0 - - - - - - -
06/05:00am 11.9 WSW 15 21 1013.6 - 8.0 - - - - - - -
06/04:30am 11.9 W 12 17 1013.7 - 8.0 - - - - - - -
06/04:00am 12.4 W 17 24 1013.6 - 8.0 - - - - - - -
06/03:30am 12.6 W 17 27 1013.9 - 8.0 - - - - - - -
06/03:00am 12.5 W 16 24 1014.1 - 8.0 - - - - - - -
06/02:30am 12.7 W 18 23 1013.7 - 8.0 - - - - - - -
06/02:00am 12.3 W 15 23 1013.7 - 8.0 - - - - - - -
06/01:30am 12.7 W 15 23 1013.8 - 8.0 - - - - - - -
06/01:00am 12.6 W 14 20 1013.9 - 8.0 - - - - - - -
06/12:30am 12.7 W 15 20 1013.8 - 8.0 - - - - - - -
06/12:20am 12.7 W 15 21 1013.8 - 8.0 - - - - - - -
06/12:00am 12.3 NW 8 11 1014.2 - 7.8 - - - - - - -
 
Date/Time
CST
Temp

°C
Wind Pressure Rain
since 9am
mm
Weather Cloud Vis
km
Sea
Height
m
Swell
Dir
 
Speed
knots
Gust
knots
hPa Trend Height
m
Period
s
Dir
05/11:30pm 12.4 NW 9 13 1014.3 - 7.8 - - - - - - -
05/11:00pm 11.6 NW 10 15 1014.0 - 7.8 - - - - - - -
05/10:36pm 11.8 NW 16 26 1014.5 - 7.2 - - - - - - -
05/10:30pm 12.1 WNW 15 19 1014.2 - 6.8 - - - - - - -
05/10:28pm 12.0 NW 15 28 1014.3 - 6.6 - - - - - - -
05/10:00pm 12.4 NNW 13 21 1013.9 - 4.6 - - - - - - -
05/09:30pm 12.6 NNW 11 16 1014.2 - 4.4 - - - - - - -
05/09:00pm 12.4 N 9 11 1014.6 - 4.2 - - - - - - -
05/08:30pm 12.4 NNW 9 13 1014.8 - 4.2 - - - - - - -
05/08:00pm 12.2 NNW 11 13 1015.1 - 3.4 - - - - - - -
05/07:30pm 12.1 NW 10 15 1015.0 - 3.2 - - - - - - -
05/07:00pm 12.4 WNW 15 21 1014.9 - 1.4 - - - - - - -
05/06:30pm 13.1 WNW 15 21 1014.8 - 0.6 - - - - - - -
05/06:00pm 14.0 NW 14 19 1014.9 - 0.6 - - - - - - -
05/05:30pm 13.9 NW 14 20 1014.7 - 0.6 - - - - - - -
05/05:00pm 13.7 NNW 14 19 1014.7 - 0.6 - - - - - - -
05/04:30pm 13.7 NW 15 21 1014.8 - 0.4 - - - - - - -
05/04:00pm 13.4 NW 13 18 1014.8 - 0.4 - - - - - - -
05/03:30pm 14.0 NW 16 21 1014.9 - 0.2 - - - - - - -
05/03:00pm 15.4 NW 14 22 1015.0 F 0.2 Fine Mostly cloudy 15 2 5.9 10 SW
05/02:30pm 15.3 NW 15 21 1015.1 - 0.2 - - - - - - -
05/02:00pm 14.4 NNW 13 20 1015.3 - 0.2 - - - - - - -
05/01:30pm 14.8 NNW 15 20 1015.6 - 0.2 - - - - - - -
05/01:00pm 15.1 NNW 15 22 1015.9 - 0.2 - - - - - - -
05/12:30pm 14.3 NNW 15 20 1016.3 - 0.2 - - - - - - -
05/12:00pm 13.7 NNW 13 18 1016.9 - 0.2 - - - - - - -
05/11:30am 13.4 NNW 15 20 1017.0 - 0.2 - - - - - - -
05/11:00am 13.6 NNW 14 19 1017.5 - 0.0 - - - - - - -
05/10:30am 14.2 NNW 14 21 1017.7 - 0.0 - - - - - - -
05/10:00am 13.9 NNW 14 19 1017.9 - 0.0 - - - - - - -
05/09:30am 14.0 NNW 14 19 1017.8 - 0.0 - - - - - - -
05/09:00am 13.9 NNW 13 22 1017.9 F 0.0 Fine Partly cloudy 20 2 5.0 8 SW
05/08:30am 13.6 NNW 13 20 1017.7 - 0.0 - - - - - - -
05/08:00am 13.5 NNW 13 18 1017.7 - 0.0 - - - - - - -
05/07:30am 13.4 NNW 14 19 1017.8 - 0.0 - - - - - - -
05/07:00am 13.4 NNW 13 20 1017.8 - 0.0 - - - - - - -
05/06:30am 13.3 NNW 12 18 1017.8 - 0.0 - - - - - - -
05/06:00am 13.2 NNW 12 18 1018.0 - 0.0 - - - - - - -
05/05:30am 13.6 NNW 12 17 1017.8 - 0.0 - - - - - - -
05/05:00am 13.6 NNW 13 19 1017.7 - 0.0 - - - - - - -
05/04:30am 13.5 NNW 12 17 1017.6 - 0.0 - - - - - - -
05/04:00am 13.5 NNW 13 18 1017.8 - 0.0 - - - - - - -
05/03:30am 13.4 NNW 12 16 1018.0 - 0.0 - - - - - - -
05/03:00am 13.5 NNW 13 18 1018.5 - 0.0 - - - - - - -
05/02:30am 13.5 NNW 11 15 1018.5 - 0.0 - - - - - - -
05/02:00am 13.4 NNW 13 18 1018.4 - 0.0 - - - - - - -
05/01:30am 13.3 NW 12 16 1018.6 - 0.0 - - - - - - -
05/01:00am 13.2 NNW 11 14 1018.7 - 0.0 - - - - - - -
05/12:30am 13.0 NNW 9 11 1019.1 - 0.0 - - - - - - -
05/12:00am 13.2 NNW 9 13 1019.5 - 0.0 - - - - - - -
 
Date/Time
CST
Temp

°C
Wind Pressure Rain
since 9am
mm
Weather Cloud Vis
km
Sea
Height
m
Swell
Dir
 
Speed
knots
Gust
knots
hPa Trend Height
m
Period
s
Dir
04/11:30pm 13.3 NNW 9 14 1019.5 - 0.0 - - - - - - -
04/11:00pm 13.4 NNW 9 14 1019.6 - 0.0 - - - - - - -
04/10:30pm 13.6 NNW 9 13 1019.8 - 0.0 - - - - - - -
04/10:00pm 13.6 NNW 9 14 1020.0 - 0.0 - - - - - - -
04/09:30pm 13.6 NNW 10 14 1020.1 - 0.0 - - - - - - -
04/09:00pm 13.6 NNW 9 13 1020.4 - 0.0 - - - - - - -
04/08:30pm 13.4 NNW 9 13 1020.2 - 0.0 - - - - - - -
04/08:00pm 13.3 NNW 9 14 1020.2 - 0.0 - - - - - - -
04/07:30pm 13.1 NNW 7 11 1020.3 - 0.0 - - - - - - -
04/07:00pm 12.9 NNW 8 11 1020.4 - 0.0 - - - - - - -
04/06:30pm 13.0 NNW 8 11 1020.4 - 0.0 - - - - - - -
04/06:00pm 13.0 N 7 10 1020.3 - 0.0 - - - - - - -
04/05:30pm 13.0 NNW 6 8 1020.4 - 0.0 - - - - - - -
04/05:00pm 14.0 NNW 6 8 1020.4 - 0.0 - - - - - - -
04/04:30pm 14.6 N 7 10 1020.4 - 0.0 - - - - - - -
04/04:00pm 15.1 NNW 8 11 1020.6 - 0.0 - - - - - - -
04/03:30pm 15.5 NNW 8 11 1020.5 - 0.0 - - - - - - -
04/03:00pm 15.2 N 10 13 1020.5 F 0.0 Fine Mostly clear 20 <0.5 4.0 8 SW
04/02:30pm 15.7 N 9 11 1020.5 - 0.0 - - - - - - -
04/02:00pm 15.6 NNW 9 13 1020.9 - 0.0 - - - - - - -
04/01:30pm 15.7 N 10 13 1021.2 - 0.0 - - - - - - -
04/01:00pm 15.6 N 9 13 1021.5 - 0.0 - - - - - - -
04/12:30pm 15.7 NNW 9 12 1022.0 - 0.0 - - - - - - -
04/12:00pm 15.5 NNW 9 13 1022.5 - 0.0 - - - - - - -
04/11:30am 15.5 N 9 13 1022.7 - 0.0 - - - - - - -
04/11:00am 15.2 NNW 8 11 1023.1 - 0.0 - - - - - - -
04/10:30am 14.4 NNW 8 12 1023.4 - 0.0 - - - - - - -
04/10:00am 13.6 N 9 12 1023.5 - 0.0 - - - - - - -
04/09:30am 13.2 N 9 13 1023.3 - 0.0 - - - - - - -
04/09:00am 12.7 N 8 12 1023.3 F 17.2 Haze Partly cloudy 15 <0.5 4.1 10 SW
04/08:30am 12.6 N 7 11 1023.0 - 17.2 - - - - - - -
04/08:00am 12.5 N 8 11 1023.0 - 17.2 - - - - - - -
04/07:30am 12.5 N 7 11 1022.8 - 17.0 - - - - - - -
04/07:00am 12.5 N 7 9 1022.6 - 17.0 - - - - - - -
04/06:30am 12.6 N 7 9 1022.4 - 17.0 - - - - - - -
04/06:00am 12.5 N 4 6 1022.6 - 17.0 - - - - - - -
04/05:30am 12.5 N 6 8 1022.3 - 17.0 - - - - - - -
04/05:00am 12.5 NNW 7 10 1022.4 - 17.0 - - - - - - -
04/04:30am 11.9 N 4 5 1022.5 - 17.0 - - - - - - -
04/04:00am 11.5 NNW 6 8 1022.5 - 17.0 - - - - - - -
04/03:30am 11.5 NW 4 7 1022.7 - 17.0 - - - - - - -
04/03:00am 11.6 NW 4 7 1023.0 - 16.8 - - - - - - -
04/02:30am 11.2 N 4 6 1023.0 - 16.8 - - - - - - -
04/02:00am 11.5 NW 4 5 1023.2 - 16.2 - - - - - - -
04/01:30am 12.0 WNW 4 6 1023.3 - 15.8 - - - - - - -
04/01:00am 12.0 NW 4 6 1023.4 - 14.8 - - - - - - -
04/12:30am 12.1 NW 5 8 1023.5 - 10.6 - - - - - - -
04/12:00am 12.1 W 5 7 1024.0 - 7.8 - - - - - - -
 
Date/Time
CST
Temp

°C
Wind Pressure Rain
since 9am
mm
Weather Cloud Vis
km
Sea
Height
m
Swell
Dir
 
Speed
knots
Gust
knots
hPa Trend Height
m
Period
s
Dir
03/11:30pm 12.4 NNW 4 9 1023.9 - 4.6 - - - - - - -
03/11:00pm 12.9 NNW 6 9 1024.1 - 0.0 - - - - - - -
03/10:30pm 12.8 NW 7 9 1024.2 - 0.0 - - - - - - -
03/10:00pm 12.8 N 8 11 1024.2 - 0.0 - - - - - - -
03/09:30pm 12.8 N 8 12 1024.4 - 0.0 - - - - - - -
03/09:00pm 12.9 N 7 11 1024.7 - 0.0 - - - - - - -
03/08:30pm 12.8 N 7 11 1024.7 - 0.0 - - - - - - -
03/08:00pm 12.7 N 7 10 1024.7 - 0.0 - - - - - - -
03/07:30pm 12.7 N 7 10 1024.7 - 0.0 - - - - - - -
03/07:00pm 12.5 NNW 7 9 1024.6 - 0.0 - - - - - - -
03/06:30pm 12.4 NNW 6 8 1024.7 - 0.0 - - - - - - -
03/06:00pm 11.9 N 5 6 1024.9 - 0.0 - - - - - - -
03/05:30pm 11.9 NNW 5 6 1024.7 - 0.0 - - - - - - -
03/05:00pm 12.3 NW 7 10 1024.8 - 0.0 - - - - - - -
03/04:30pm 12.4 NW 6 9 1024.8 - 0.0 - - - - - - -
03/04:00pm 12.4 NW 7 10 1024.9 - 0.0 - - - - - - -
03/03:30pm 12.6 NW 8 10 1025.0 - 0.0 - - - - - - -
03/03:00pm 12.5 N 9 13 1025.3 F 0.0 Fine Mostly cloudy 18 <0.5 4.4 9 SW
03/02:30pm 12.4 N 9 13 1025.1 - 0.0 - - - - - - -
03/02:00pm 12.0 N 9 13 1025.4 - 0.0 - - - - - - -
03/01:30pm 12.0 N 9 13 1025.7 - 0.0 - - - - - - -
03/01:00pm 11.8 N 8 11 1026.2 - 0.0 - - - - - - -
03/12:30pm 11.6 N 8 11 1026.7 - 0.0 - - - - - - -
03/12:00pm 11.6 N 10 15 1027.6 - 0.0 - - - - - - -
03/11:30am 11.9 N 10 14 1027.6 - 0.0 - - - - - - -
03/11:00am 12.0 N 10 13 1027.7 - 0.0 - - - - - - -
03/10:30am 12.0 N 9 13 1028.0 - 0.0 - - - - - - -
03/10:00am 11.9 N 9 12 1027.9 - 0.0 - - - - - - -
03/09:30am 11.9 N 9 12 1027.8 - 0.0 - - - - - - -
03/09:00am 12.0 N 8 11 1028.0 F 0.0 Haze Cloudy 15 <0.1 5.8 9 SW
03/08:30am 11.8 N 8 11 1027.5 - 0.0 - - - - - - -
03/08:00am 11.5 N 7 11 1027.1 - 0.0 - - - - - - -
03/07:30am 11.5 N 8 11 1027.0 - 0.0 - - - - - - -
03/07:00am 11.4 NNE 8 11 1027.3 - 0.0 - - - - - - -

Other Formats:

Comma delimited format used in spreadsheet applications
http://www.bom.gov.au/fwo/IDS60701/IDS60701.95805.axf

JavaScript Object Notation format (JSON) in row-major order
http://www.bom.gov.au/fwo/IDS60701/IDS60701.95805.json